AAL6767 KDCA-KLGA
Flight info
| Callsign | AAL6767 |
|---|---|
| Flight time | N/A |
| Altitude | 21000 |
| Route | DOCTR5 AGARD SPEAK PROUD2 |
| Aircraft | B38M/M-SDE1FGHILORVWXY/HB1 |
Departure
| Time | 2026-05-03 20:20 |
|---|---|
| Airport | Ronald Reagan Washington National Airport (KDCA) |
Arrival
| Time | N/A |
|---|---|
| Airport | LaGuardia Airport (KLGA) |
| Time | Latitude | Longitude | Altitude | Speed | Heading |
|---|---|---|---|---|---|
| 2026-05-03 20:15 | 38.85164 | -77.04042 | 24 ft | 0 kts | 196° |
| 2026-05-03 20:15 | 38.85165 | -77.04041 | 24 ft | 0 kts | 187° |
| 2026-05-03 20:16 | 38.85144 | -77.04038 | 23 ft | 10 kts | 169° |
| 2026-05-03 20:16 | 38.85020 | -77.03977 | 25 ft | 22 kts | 156° |
| 2026-05-03 20:17 | 38.84894 | -77.03947 | 25 ft | 16 kts | 175° |
| 2026-05-03 20:17 | 38.84803 | -77.03937 | 27 ft | 10 kts | 176° |
| 2026-05-03 20:17 | 38.84763 | -77.03919 | 28 ft | 4 kts | 152° |
| 2026-05-03 20:17 | 38.84701 | -77.03889 | 31 ft | 22 kts | 158° |
| 2026-05-03 20:18 | 38.84494 | -77.03855 | 27 ft | 37 kts | 174° |
| 2026-05-03 20:18 | 38.84271 | -77.03828 | 27 ft | 24 kts | 173° |
| 2026-05-03 20:18 | 38.84197 | -77.03743 | 26 ft | 10 kts | 104° |
| 2026-05-03 20:18 | 38.84213 | -77.03692 | 26 ft | 15 kts | 47° |
| 2026-05-03 20:19 | 38.84253 | -77.03678 | 25 ft | 1 kts | 349° |
| 2026-05-03 20:19 | 38.84282 | -77.03685 | 25 ft | 25 kts | 349° |
| 2026-05-03 20:19 | 38.84750 | -77.03745 | 28 ft | 108 kts | 351° |
| 2026-05-03 20:19 | 38.85698 | -77.03825 | 271 ft | 148 kts | 351° |
| 2026-05-03 20:20 | 38.86685 | -77.03893 | 1291 ft | 144 kts | 347° |
| 2026-05-03 20:20 | 38.87687 | -77.04541 | 1505 ft | 191 kts | 319° |
| 2026-05-03 20:20 | 38.88744 | -77.05697 | 1499 ft | 203 kts | 317° |
| 2026-05-03 20:20 | 38.89820 | -77.06915 | 1495 ft | 208 kts | 311° |
| 2026-05-03 20:21 | 38.90596 | -77.08482 | 1683 ft | 210 kts | 298° |
| 2026-05-03 20:21 | 38.91329 | -77.10173 | 2267 ft | 224 kts | 303° |
| 2026-05-03 20:21 | 38.92510 | -77.11566 | 3213 ft | 237 kts | 324° |
| 2026-05-03 20:21 | 38.93912 | -77.12754 | 3889 ft | 250 kts | 324° |
| 2026-05-03 20:22 | 38.95411 | -77.13877 | 4014 ft | 250 kts | 330° |
| 2026-05-03 20:22 | 38.97027 | -77.14719 | 4030 ft | 254 kts | 346° |
| 2026-05-03 20:22 | 38.98804 | -77.14682 | 4490 ft | 260 kts | 8° |
| 2026-05-03 20:22 | 39.00499 | -77.13712 | 4965 ft | 274 kts | 31° |
| 2026-05-03 20:23 | 39.02013 | -77.12204 | 4999 ft | 273 kts | 35° |
| 2026-05-03 20:23 | 39.03332 | -77.10454 | 5001 ft | 278 kts | 54° |
| 2026-05-03 20:23 | 39.03983 | -77.08086 | 5019 ft | 285 kts | 82° |
| 2026-05-03 20:23 | 39.03926 | -77.05538 | 5013 ft | 288 kts | 94° |
| 2026-05-03 20:24 | 39.03706 | -77.02956 | 5018 ft | 289 kts | 95° |
| 2026-05-03 20:24 | 39.03487 | -77.00385 | 5452 ft | 289 kts | 94° |
| 2026-05-03 20:24 | 39.03304 | -76.97820 | 6535 ft | 289 kts | 93° |
| 2026-05-03 20:24 | 39.03126 | -76.95264 | 7503 ft | 293 kts | 93° |
| 2026-05-03 20:25 | 39.02931 | -76.92620 | 8453 ft | 300 kts | 93° |
| 2026-05-03 20:25 | 39.02728 | -76.89928 | 9406 ft | 305 kts | 92° |
| 2026-05-03 20:25 | 39.02523 | -76.87179 | 10307 ft | 312 kts | 92° |
| 2026-05-03 20:25 | 39.02313 | -76.84331 | 10891 ft | 329 kts | 92° |
| 2026-05-03 20:26 | 39.02089 | -76.81323 | 11399 ft | 348 kts | 92° |
| 2026-05-03 20:26 | 39.01849 | -76.78149 | 11965 ft | 363 kts | 93° |
| 2026-05-03 20:26 | 39.01600 | -76.74880 | 12739 ft | 371 kts | 93° |
| 2026-05-03 20:26 | 39.01346 | -76.71542 | 13564 ft | 378 kts | 93° |
| 2026-05-03 20:27 | 39.01089 | -76.68146 | 14331 ft | 385 kts | 93° |
| 2026-05-03 20:27 | 39.00939 | -76.64696 | 15059 ft | 388 kts | 87° |
| 2026-05-03 20:27 | 39.00956 | -76.61192 | 15783 ft | 394 kts | 87° |
| 2026-05-03 20:27 | 39.00962 | -76.57642 | 16511 ft | 400 kts | 88° |
| 2026-05-03 20:28 | 39.00967 | -76.54033 | 17230 ft | 406 kts | 88° |
| 2026-05-03 20:28 | 39.00974 | -76.50422 | 18142 ft | 404 kts | 88° |
| 2026-05-03 20:28 | 39.00982 | -76.46799 | 18934 ft | 405 kts | 88° |
| 2026-05-03 20:28 | 39.00988 | -76.43179 | 19693 ft | 405 kts | 88° |
| 2026-05-03 20:29 | 39.01155 | -76.39587 | 20468 ft | 401 kts | 79° |
| 2026-05-03 20:29 | 39.01509 | -76.36042 | 21204 ft | 401 kts | 79° |
| 2026-05-03 20:29 | 39.01879 | -76.32470 | 21939 ft | 401 kts | 79° |
| 2026-05-03 20:29 | 39.02227 | -76.28952 | 22644 ft | 401 kts | 79° |
| 2026-05-03 20:30 | 39.02568 | -76.25394 | 23048 ft | 401 kts | 79° |
| 2026-05-03 20:30 | 39.02915 | -76.21821 | 23042 ft | 401 kts | 79° |
| 2026-05-03 20:30 | 39.03264 | -76.18271 | 23044 ft | 400 kts | 79° |
| 2026-05-03 20:30 | 39.03611 | -76.14722 | 23041 ft | 400 kts | 79° |
| 2026-05-03 20:31 | 39.03955 | -76.11165 | 23043 ft | 401 kts | 79° |
| 2026-05-03 20:31 | 39.04296 | -76.07607 | 23042 ft | 401 kts | 80° |
| 2026-05-03 20:31 | 39.04478 | -76.04014 | 23041 ft | 403 kts | 84° |
| 2026-05-03 20:31 | 39.04649 | -76.00407 | 23041 ft | 403 kts | 83° |
| 2026-05-03 20:32 | 39.04830 | -75.96849 | 23043 ft | 403 kts | 83° |
| 2026-05-03 20:32 | 39.04995 | -75.93256 | 23038 ft | 403 kts | 83° |
| 2026-05-03 20:32 | 39.05147 | -75.89654 | 23028 ft | 403 kts | 84° |
| 2026-05-03 20:32 | 39.05306 | -75.86054 | 23025 ft | 403 kts | 83° |
| 2026-05-03 20:33 | 39.05470 | -75.82457 | 23020 ft | 403 kts | 83° |
| 2026-05-03 20:33 | 39.05628 | -75.78855 | 22943 ft | 405 kts | 84° |
| 2026-05-03 20:33 | 39.05748 | -75.75197 | 22622 ft | 414 kts | 85° |
| 2026-05-03 20:33 | 39.05782 | -75.71439 | 22190 ft | 426 kts | 87° |
| 2026-05-03 20:34 | 39.05690 | -75.67598 | 21869 ft | 433 kts | 91° |
| 2026-05-03 20:34 | 39.05440 | -75.63722 | 21756 ft | 435 kts | 94° |
| 2026-05-03 20:34 | 39.05008 | -75.59885 | 21838 ft | 431 kts | 98° |
| 2026-05-03 20:34 | 39.04387 | -75.56139 | 21977 ft | 424 kts | 99° |
| 2026-05-03 20:35 | 39.04331 | -75.52425 | 22138 ft | 410 kts | 74° |
| 2026-05-03 20:35 | 39.05352 | -75.49182 | 22308 ft | 386 kts | 47° |
| 2026-05-03 20:35 | 39.07211 | -75.46912 | 22498 ft | 355 kts | 20° |
| 2026-05-03 20:35 | 39.09472 | -75.45945 | 22678 ft | 328 kts | 359° |
| 2026-05-03 20:36 | 39.11709 | -75.45484 | 22844 ft | 328 kts | 5° |
| 2026-05-03 20:36 | 39.13861 | -75.44590 | 22990 ft | 328 kts | 8° |
| 2026-05-03 20:36 | 39.16033 | -75.43634 | 22992 ft | 330 kts | 9° |
| 2026-05-03 20:36 | 39.18194 | -75.42610 | 22994 ft | 332 kts | 11° |
| 2026-05-03 20:37 | 39.20354 | -75.41561 | 23004 ft | 332 kts | 11° |
| 2026-05-03 20:37 | 39.22523 | -75.40530 | 23010 ft | 332 kts | 10° |
| 2026-05-03 20:37 | 39.24699 | -75.39510 | 23012 ft | 332 kts | 10° |
| 2026-05-03 20:37 | 39.26874 | -75.38484 | 22999 ft | 333 kts | 10° |
| 2026-05-03 20:38 | 39.29032 | -75.37459 | 22939 ft | 335 kts | 10° |
| 2026-05-03 20:38 | 39.31230 | -75.36414 | 22896 ft | 337 kts | 10° |
| 2026-05-03 20:38 | 39.33435 | -75.35368 | 22893 ft | 338 kts | 11° |
| 2026-05-03 20:38 | 39.35645 | -75.34318 | 22868 ft | 339 kts | 11° |
| 2026-05-03 20:39 | 39.37863 | -75.33264 | 22839 ft | 339 kts | 11° |
| 2026-05-03 20:39 | 39.39328 | -75.32567 | 22827 ft | 339 kts | 11° |
| 2026-05-03 20:39 | 39.41549 | -75.31510 | 22764 ft | 340 kts | 11° |
| 2026-05-03 20:39 | 39.43768 | -75.30454 | 22678 ft | 341 kts | 11° |
| 2026-05-03 20:40 | 39.45993 | -75.29394 | 22606 ft | 341 kts | 11° |
| 2026-05-03 20:40 | 39.48238 | -75.28323 | 22545 ft | 342 kts | 11° |
| 2026-05-03 20:40 | 39.50505 | -75.27144 | 22090 ft | 365 kts | 20° |
| 2026-05-03 20:40 | 39.52674 | -75.25291 | 21993 ft | 377 kts | 27° |
| 2026-05-03 20:41 | 39.54792 | -75.23298 | 21702 ft | 377 kts | 28° |
| 2026-05-03 20:41 | 39.56904 | -75.21300 | 21222 ft | 375 kts | 28° |
| 2026-05-03 20:41 | 39.58991 | -75.19347 | 20765 ft | 374 kts | 27° |
| 2026-05-03 20:41 | 39.61097 | -75.17380 | 20321 ft | 372 kts | 28° |
| 2026-05-03 20:42 | 39.63192 | -75.15415 | 19877 ft | 370 kts | 28° |
| 2026-05-03 20:42 | 39.65269 | -75.13460 | 19465 ft | 368 kts | 28° |
| 2026-05-03 20:42 | 39.67342 | -75.11511 | 19050 ft | 366 kts | 27° |
| 2026-05-03 20:42 | 39.69444 | -75.09703 | 18640 ft | 361 kts | 25° |
| 2026-05-03 20:43 | 39.71537 | -75.07901 | 18222 ft | 359 kts | 26° |
| 2026-05-03 20:43 | 39.73608 | -75.06097 | 17777 ft | 357 kts | 26° |
| 2026-05-03 20:43 | 39.75675 | -75.04315 | 17348 ft | 355 kts | 26° |
| 2026-05-03 20:43 | 39.77726 | -75.02556 | 17003 ft | 352 kts | 26° |
| 2026-05-03 20:44 | 39.79766 | -75.00802 | 16951 ft | 352 kts | 26° |
| 2026-05-03 20:44 | 39.81814 | -74.99034 | 16940 ft | 353 kts | 26° |
| 2026-05-03 20:44 | 39.83862 | -74.97263 | 16938 ft | 354 kts | 26° |
| 2026-05-03 20:44 | 39.85890 | -74.95434 | 16941 ft | 355 kts | 28° |
| 2026-05-03 20:45 | 39.87890 | -74.93614 | 16938 ft | 354 kts | 27° |
| 2026-05-03 20:45 | 39.89928 | -74.91820 | 16936 ft | 354 kts | 27° |
| 2026-05-03 20:45 | 39.91946 | -74.89971 | 16952 ft | 357 kts | 32° |
| 2026-05-03 20:45 | 39.93721 | -74.87649 | 16907 ft | 363 kts | 40° |
| 2026-05-03 20:46 | 39.95403 | -74.85211 | 16624 ft | 361 kts | 41° |
| 2026-05-03 20:46 | 39.97078 | -74.82786 | 16209 ft | 358 kts | 41° |
| 2026-05-03 20:46 | 39.98758 | -74.80392 | 15793 ft | 356 kts | 40° |
| 2026-05-03 20:46 | 40.00427 | -74.78019 | 15377 ft | 354 kts | 41° |
| 2026-05-03 20:47 | 40.02080 | -74.75650 | 14973 ft | 351 kts | 41° |
| 2026-05-03 20:47 | 40.03701 | -74.73320 | 14563 ft | 349 kts | 41° |
| 2026-05-03 20:47 | 40.05328 | -74.70983 | 14165 ft | 347 kts | 41° |
| 2026-05-03 20:47 | 40.06948 | -74.68659 | 13785 ft | 345 kts | 41° |
| 2026-05-03 20:48 | 40.08557 | -74.66347 | 13341 ft | 342 kts | 42° |
| 2026-05-03 20:48 | 40.10151 | -74.64052 | 12933 ft | 340 kts | 42° |
| 2026-05-03 20:48 | 40.11737 | -74.61770 | 12529 ft | 337 kts | 42° |
| 2026-05-03 20:48 | 40.13304 | -74.59513 | 12127 ft | 335 kts | 42° |
| 2026-05-03 20:49 | 40.14864 | -74.57265 | 11732 ft | 332 kts | 42° |
| 2026-05-03 20:49 | 40.16407 | -74.55040 | 11341 ft | 329 kts | 42° |
| 2026-05-03 20:49 | 40.17922 | -74.52853 | 10975 ft | 326 kts | 42° |
| 2026-05-03 20:49 | 40.19437 | -74.50664 | 10923 ft | 324 kts | 42° |
| 2026-05-03 20:50 | 40.21009 | -74.48556 | 10924 ft | 323 kts | 38° |
| 2026-05-03 20:50 | 40.22634 | -74.46523 | 10923 ft | 324 kts | 39° |
| 2026-05-03 20:50 | 40.24242 | -74.44460 | 10922 ft | 324 kts | 39° |
| 2026-05-03 20:50 | 40.25856 | -74.42393 | 10920 ft | 323 kts | 39° |
| 2026-05-03 20:51 | 40.27459 | -74.40340 | 10918 ft | 324 kts | 39° |
| 2026-05-03 20:51 | 40.29079 | -74.38266 | 10904 ft | 323 kts | 39° |
| 2026-05-03 20:51 | 40.30665 | -74.36236 | 10911 ft | 323 kts | 39° |
| 2026-05-03 20:51 | 40.32270 | -74.34181 | 10916 ft | 322 kts | 39° |
| 2026-05-03 20:52 | 40.33875 | -74.32126 | 10912 ft | 322 kts | 39° |
| 2026-05-03 20:52 | 40.35481 | -74.30073 | 10909 ft | 323 kts | 39° |
| 2026-05-03 20:52 | 40.37086 | -74.28019 | 10911 ft | 322 kts | 39° |
| 2026-05-03 20:52 | 40.38689 | -74.25970 | 10909 ft | 322 kts | 39° |
| 2026-05-03 20:53 | 40.40299 | -74.23912 | 10859 ft | 322 kts | 39° |
| 2026-05-03 20:53 | 40.41896 | -74.21871 | 10631 ft | 318 kts | 39° |
| 2026-05-03 20:53 | 40.43463 | -74.19860 | 10491 ft | 308 kts | 39° |
| 2026-05-03 20:53 | 40.44964 | -74.17921 | 10404 ft | 298 kts | 39° |
| 2026-05-03 20:54 | 40.46424 | -74.16027 | 10203 ft | 292 kts | 39° |
| 2026-05-03 20:54 | 40.49261 | -74.12326 | 9764 ft | 282 kts | 39° |
| 2026-05-03 20:54 | 40.50631 | -74.10528 | 9628 ft | 274 kts | 39° |
| 2026-05-03 20:55 | 40.51930 | -74.08809 | 9406 ft | 259 kts | 39° |
| 2026-05-03 20:55 | 40.53221 | -74.07305 | 9131 ft | 228 kts | 16° |
| 2026-05-03 20:55 | 40.54647 | -74.06608 | 8993 ft | 218 kts | 12° |
| 2026-05-03 20:55 | 40.56048 | -74.05856 | 8820 ft | 218 kts | 21° |
| 2026-05-03 20:56 | 40.57343 | -74.04831 | 8597 ft | 215 kts | 26° |
| 2026-05-03 20:56 | 40.58583 | -74.03724 | 8060 ft | 215 kts | 26° |
| 2026-05-03 20:56 | 40.59828 | -74.02644 | 7571 ft | 214 kts | 25° |
| 2026-05-03 20:56 | 40.61075 | -74.01589 | 7110 ft | 212 kts | 25° |
| 2026-05-03 20:57 | 40.62318 | -74.00538 | 6627 ft | 212 kts | 25° |
| 2026-05-03 20:57 | 40.63553 | -73.99490 | 6181 ft | 210 kts | 25° |
| 2026-05-03 20:57 | 40.64778 | -73.98450 | 5685 ft | 209 kts | 25° |
| 2026-05-03 20:57 | 40.65999 | -73.97414 | 5224 ft | 208 kts | 25° |
| 2026-05-03 20:58 | 40.67207 | -73.96378 | 4737 ft | 207 kts | 25° |
| 2026-05-03 20:58 | 40.68403 | -73.95338 | 4310 ft | 203 kts | 25° |
| 2026-05-03 20:58 | 40.69544 | -73.94327 | 4011 ft | 193 kts | 30° |
| 2026-05-03 20:58 | 40.70489 | -73.93055 | 3656 ft | 193 kts | 38° |
| 2026-05-03 20:59 | 40.71392 | -73.91765 | 3287 ft | 190 kts | 39° |
| 2026-05-03 20:59 | 40.72033 | -73.90229 | 2895 ft | 201 kts | 69° |
| 2026-05-03 20:59 | 40.72348 | -73.88435 | 2524 ft | 200 kts | 71° |
| 2026-05-03 20:59 | 40.72649 | -73.86641 | 2105 ft | 200 kts | 71° |
| 2026-05-03 21:00 | 40.73024 | -73.84891 | 1720 ft | 194 kts | 53° |
| 2026-05-03 21:00 | 40.73564 | -73.84020 | 1426 ft | 179 kts | 33° |
| 2026-05-03 21:00 | 40.74927 | -73.83289 | 785 ft | 138 kts | 349° |